sensor_id;sensor_type;location;lat;lon;timestamp;pressure;altitude;pressure_sealevel;temperature;humidity
73297;BME280;61524;50.938;11.396;2023-04-25T00:01:03;98210.63;;;7.86;77.77
73297;BME280;61524;50.938;11.396;2023-04-25T00:03:30;98218.28;;;7.82;77.73
73297;BME280;61524;50.938;11.396;2023-04-25T00:05:58;98217.44;;;7.77;77.96
73297;BME280;61524;50.938;11.396;2023-04-25T00:08:27;98222.06;;;7.86;77.33
73297;BME280;61524;50.938;11.396;2023-04-25T00:10:52;98224.94;;;7.85;78.13
73297;BME280;61524;50.938;11.396;2023-04-25T00:13:18;98216.38;;;7.78;77.53
73297;BME280;61524;50.938;11.396;2023-04-25T00:15:44;98222.50;;;7.78;77.57
73297;BME280;61524;50.938;11.396;2023-04-25T00:18:11;98228.59;;;7.79;77.42
73297;BME280;61524;50.938;11.396;2023-04-25T00:20:37;98222.16;;;7.75;77.47
73297;BME280;61524;50.938;11.396;2023-04-25T00:23:02;98226.75;;;7.57;77.40
73297;BME280;61524;50.938;11.396;2023-04-25T00:25:27;98222.56;;;7.61;77.35
73297;BME280;61524;50.938;11.396;2023-04-25T00:27:53;98227.41;;;7.48;78.30
73297;BME280;61524;50.938;11.396;2023-04-25T00:30:19;98229.28;;;7.47;77.75
73297;BME280;61524;50.938;11.396;2023-04-25T00:32:44;98213.63;;;7.29;78.91
73297;BME280;61524;50.938;11.396;2023-04-25T00:35:11;98233.97;;;6.51;81.75
73297;BME280;61524;50.938;11.396;2023-04-25T00:37:36;98233.41;;;6.49;82.11
73297;BME280;61524;50.938;11.396;2023-04-25T00:40:05;98228.09;;;6.66;82.47
73297;BME280;61524;50.938;11.396;2023-04-25T00:42:31;98233.31;;;6.44;81.56
73297;BME280;61524;50.938;11.396;2023-04-25T00:44:58;98228.00;;;6.27;82.00
73297;BME280;61524;50.938;11.396;2023-04-25T00:47:23;98229.41;;;6.18;83.80
73297;BME280;61524;50.938;11.396;2023-04-25T00:49:49;98225.72;;;6.19;83.32
73297;BME280;61524;50.938;11.396;2023-04-25T00:52:15;98223.91;;;6.19;83.78
73297;BME280;61524;50.938;11.396;2023-04-25T00:54:40;98230.38;;;6.12;83.63
73297;BME280;61524;50.938;11.396;2023-04-25T00:57:06;98224.22;;;5.94;83.97
73297;BME280;61524;50.938;11.396;2023-04-25T00:59:31;98223.66;;;5.92;84.10
73297;BME280;61524;50.938;11.396;2023-04-25T01:01:57;98226.31;;;5.92;84.10
73297;BME280;61524;50.938;11.396;2023-04-25T01:04:23;98211.72;;;5.66;84.62
73297;BME280;61524;50.938;11.396;2023-04-25T01:06:49;98215.94;;;5.27;85.25
73297;BME280;61524;50.938;11.396;2023-04-25T01:09:15;98213.75;;;5.36;85.96
73297;BME280;61524;50.938;11.396;2023-04-25T01:11:41;98217.91;;;5.32;85.42
73297;BME280;61524;50.938;11.396;2023-04-25T01:14:06;98220.44;;;5.38;85.25
73297;BME280;61524;50.938;11.396;2023-04-25T01:16:32;98227.91;;;5.41;86.25
73297;BME280;61524;50.938;11.396;2023-04-25T01:18:58;98221.03;;;5.29;86.23
73297;BME280;61524;50.938;11.396;2023-04-25T01:21:24;98194.66;;;5.10;86.45
73297;BME280;61524;50.938;11.396;2023-04-25T01:23:52;98214.03;;;4.87;86.71
73297;BME280;61524;50.938;11.396;2023-04-25T01:26:19;98214.47;;;4.72;87.54
73297;BME280;61524;50.938;11.396;2023-04-25T01:28:46;98224.25;;;4.72;87.54
73297;BME280;61524;50.938;11.396;2023-04-25T01:31:12;98223.31;;;4.78;87.47
73297;BME280;61524;50.938;11.396;2023-04-25T01:33:38;98223.00;;;4.86;87.23
73297;BME280;61524;50.938;11.396;2023-04-25T01:36:05;98209.91;;;4.80;87.21
73297;BME280;61524;50.938;11.396;2023-04-25T01:38:31;98212.78;;;4.90;87.22
73297;BME280;61524;50.938;11.396;2023-04-25T01:40:57;98210.47;;;4.82;87.22
73297;BME280;61524;50.938;11.396;2023-04-25T01:43:23;98215.88;;;4.87;87.33
73297;BME280;61524;50.938;11.396;2023-04-25T01:45:49;98212.53;;;4.80;87.45
73297;BME280;61524;50.938;11.396;2023-04-25T01:48:15;98219.75;;;4.72;86.67
73297;BME280;61524;50.938;11.396;2023-04-25T01:50:41;98216.31;;;4.72;87.67
73297;BME280;61524;50.938;11.396;2023-04-25T01:53:09;98203.44;;;4.64;87.05
73297;BME280;61524;50.938;11.396;2023-04-25T01:55:34;98225.03;;;4.61;87.41
73297;BME280;61524;50.938;11.396;2023-04-25T01:58:02;98210.53;;;4.52;87.12
73297;BME280;61524;50.938;11.396;2023-04-25T02:00:28;98226.19;;;4.41;87.91
73297;BME280;61524;50.938;11.396;2023-04-25T02:02:53;98220.78;;;4.60;87.01
73297;BME280;61524;50.938;11.396;2023-04-25T02:05:19;98197.66;;;4.67;86.01
73297;BME280;61524;50.938;11.396;2023-04-25T02:07:46;98227.00;;;4.89;86.29
73297;BME280;61524;50.938;11.396;2023-04-25T02:10:12;98226.09;;;4.83;87.29
73297;BME280;61524;50.938;11.396;2023-04-25T02:12:37;98230.38;;;4.96;86.55
73297;BME280;61524;50.938;11.396;2023-04-25T02:15:03;98223.91;;;4.92;86.68
73297;BME280;61524;50.938;11.396;2023-04-25T02:17:28;98213.69;;;4.95;87.03
73297;BME280;61524;50.938;11.396;2023-04-25T02:19:54;98227.50;;;4.97;87.26
73297;BME280;61524;50.938;11.396;2023-04-25T02:22:19;98221.25;;;5.15;86.28
73297;BME280;61524;50.938;11.396;2023-04-25T02:24:46;98222.16;;;5.21;85.95
73297;BME280;61524;50.938;11.396;2023-04-25T02:27:11;98212.75;;;5.13;85.86
73297;BME280;61524;50.938;11.396;2023-04-25T02:29:38;98232.66;;;5.16;86.16
73297;BME280;61524;50.938;11.396;2023-04-25T02:32:03;98214.59;;;5.13;87.25
73297;BME280;61524;50.938;11.396;2023-04-25T02:34:29;98219.78;;;5.08;86.58
73297;BME280;61524;50.938;11.396;2023-04-25T02:36:55;98213.31;;;5.15;85.68
73297;BME280;61524;50.938;11.396;2023-04-25T02:39:20;98227.72;;;5.19;86.46
73297;BME280;61524;50.938;11.396;2023-04-25T02:41:47;98221.59;;;5.19;85.84
73297;BME280;61524;50.938;11.396;2023-04-25T02:44:12;98216.88;;;5.21;85.69
73297;BME280;61524;50.938;11.396;2023-04-25T02:46:38;98219.50;;;5.33;85.44
73297;BME280;61524;50.938;11.396;2023-04-25T02:49:03;98192.22;;;5.32;84.21
73297;BME280;61524;50.938;11.396;2023-04-25T02:51:29;98222.16;;;5.33;84.59
73297;BME280;61524;50.938;11.396;2023-04-25T02:53:55;98219.75;;;5.31;85.32
73297;BME280;61524;50.938;11.396;2023-04-25T02:56:20;98209.16;;;5.31;85.31
73297;BME280;61524;50.938;11.396;2023-04-25T02:58:46;98216.91;;;4.97;85.70
73297;BME280;61524;50.938;11.396;2023-04-25T03:01:11;98189.84;;;4.72;86.79
73297;BME280;61524;50.938;11.396;2023-04-25T03:03:37;98213.91;;;4.82;87.97
73297;BME280;61524;50.938;11.396;2023-04-25T03:06:02;98201.34;;;4.89;87.00
73297;BME280;61524;50.938;11.396;2023-04-25T03:08:28;98197.81;;;4.95;86.84
73297;BME280;61524;50.938;11.396;2023-04-25T03:10:58;98205.75;;;5.07;86.18
73297;BME280;61524;50.938;11.396;2023-04-25T03:13:23;98198.47;;;5.14;86.19
73297;BME280;61524;50.938;11.396;2023-04-25T03:15:49;98202.63;;;5.22;86.44
73297;BME280;61524;50.938;11.396;2023-04-25T03:18:15;98210.31;;;5.35;85.67
73297;BME280;61524;50.938;11.396;2023-04-25T03:20:40;98215.22;;;5.43;85.54
73297;BME280;61524;50.938;11.396;2023-04-25T03:23:07;98207.63;;;5.47;85.47
73297;BME280;61524;50.938;11.396;2023-04-25T03:25:32;98214.63;;;5.53;85.46
73297;BME280;61524;50.938;11.396;2023-04-25T03:27:58;98211.56;;;5.44;86.05
73297;BME280;61524;50.938;11.396;2023-04-25T03:30:23;98211.34;;;5.34;86.16
73297;BME280;61524;50.938;11.396;2023-04-25T03:32:49;98205.03;;;5.23;87.28
73297;BME280;61524;50.938;11.396;2023-04-25T03:35:14;98205.50;;;5.09;87.71
73297;BME280;61524;50.938;11.396;2023-04-25T03:37:40;98207.09;;;5.10;86.72
73297;BME280;61524;50.938;11.396;2023-04-25T03:40:06;98210.56;;;5.10;87.23
73297;BME280;61524;50.938;11.396;2023-04-25T03:42:31;98221.03;;;5.17;87.03
73297;BME280;61524;50.938;11.396;2023-04-25T03:44:57;98206.53;;;5.08;86.21
73297;BME280;61524;50.938;11.396;2023-04-25T03:47:22;98219.28;;;5.11;86.83
73297;BME280;61524;50.938;11.396;2023-04-25T03:49:48;98220.47;;;5.03;86.77
73297;BME280;61524;50.938;11.396;2023-04-25T03:52:14;98205.63;;;5.02;86.10
73297;BME280;61524;50.938;11.396;2023-04-25T03:54:40;98210.91;;;5.02;86.90
73297;BME280;61524;50.938;11.396;2023-04-25T03:57:06;98214.25;;;4.97;86.74
73297;BME280;61524;50.938;11.396;2023-04-25T03:59:31;98210.91;;;5.02;86.78
73297;BME280;61524;50.938;11.396;2023-04-25T04:01:57;98209.31;;;5.01;87.01
73297;BME280;61524;50.938;11.396;2023-04-25T04:04:22;98226.31;;;5.05;86.60
73297;BME280;61524;50.938;11.396;2023-04-25T04:06:47;98221.16;;;4.98;86.51
73297;BME280;61524;50.938;11.396;2023-04-25T04:09:13;98214.72;;;5.06;85.77
73297;BME280;61524;50.938;11.396;2023-04-25T04:11:39;98202.88;;;4.97;86.02
73297;BME280;61524;50.938;11.396;2023-04-25T04:14:05;98228.41;;;5.03;86.12
73297;BME280;61524;50.938;11.396;2023-04-25T04:16:31;98229.78;;;5.06;85.24
73297;BME280;61524;50.938;11.396;2023-04-25T04:18:56;98223.69;;;5.17;85.09
73297;BME280;61524;50.938;11.396;2023-04-25T04:21:22;98229.88;;;5.11;84.65
73297;BME280;61524;50.938;11.396;2023-04-25T04:23:48;98224.50;;;5.17;84.54
73297;BME280;61524;50.938;11.396;2023-04-25T04:26:13;98218.97;;;5.07;84.62
73297;BME280;61524;50.938;11.396;2023-04-25T04:28:42;98211.72;;;5.03;85.25
73297;BME280;61524;50.938;11.396;2023-04-25T04:31:09;98215.06;;;5.10;84.74
73297;BME280;61524;50.938;11.396;2023-04-25T04:33:35;98225.28;;;5.30;83.81
73297;BME280;61524;50.938;11.396;2023-04-25T04:36:02;98233.09;;;5.36;83.55
73297;BME280;61524;50.938;11.396;2023-04-25T04:38:28;98237.47;;;5.42;84.29
73297;BME280;61524;50.938;11.396;2023-04-25T04:40:54;98236.06;;;5.51;84.03
73297;BME280;61524;50.938;11.396;2023-04-25T04:43:21;98216.28;;;5.42;83.68
73297;BME280;61524;50.938;11.396;2023-04-25T04:45:48;98230.69;;;5.75;83.70
73297;BME280;61524;50.938;11.396;2023-04-25T04:48:14;98232.72;;;5.96;83.29
73297;BME280;61524;50.938;11.396;2023-04-25T04:50:40;98237.38;;;6.18;82.74
73297;BME280;61524;50.938;11.396;2023-04-25T04:53:06;98234.59;;;6.24;82.27
73297;BME280;61524;50.938;11.396;2023-04-25T04:55:32;98237.75;;;6.38;81.73
73297;BME280;61524;50.938;11.396;2023-04-25T04:57:57;98238.63;;;6.61;81.35
73297;BME280;61524;50.938;11.396;2023-04-25T05:00:23;98226.19;;;6.95;80.33
73297;BME280;61524;50.938;11.396;2023-04-25T05:02:48;98239.84;;;7.42;78.82
73297;BME280;61524;50.938;11.396;2023-04-25T05:05:14;98227.25;;;7.76;77.24
73297;BME280;61524;50.938;11.396;2023-04-25T05:07:39;98238.22;;;8.29;75.88
73297;BME280;61524;50.938;11.396;2023-04-25T05:10:06;98237.47;;;8.65;74.50
73297;BME280;61524;50.938;11.396;2023-04-25T05:12:32;98239.78;;;8.84;73.35
73297;BME280;61524;50.938;11.396;2023-04-25T05:14:57;98245.84;;;8.47;72.87
73297;BME280;61524;50.938;11.396;2023-04-25T05:17:23;98257.91;;;8.87;74.10
73297;BME280;61524;50.938;11.396;2023-04-25T05:19:48;98259.13;;;9.06;72.03
73297;BME280;61524;50.938;11.396;2023-04-25T05:22:14;98250.31;;;9.48;71.56
73297;BME280;61524;50.938;11.396;2023-04-25T05:24:39;98249.47;;;9.37;69.74
73297;BME280;61524;50.938;11.396;2023-04-25T05:27:05;98257.19;;;9.39;68.63
73297;BME280;61524;50.938;11.396;2023-04-25T05:29:30;98255.16;;;9.56;68.63
73297;BME280;61524;50.938;11.396;2023-04-25T05:31:56;98259.09;;;9.43;69.70
73297;BME280;61524;50.938;11.396;2023-04-25T05:34:21;98251.88;;;9.44;68.84
73297;BME280;61524;50.938;11.396;2023-04-25T05:36:47;98260.31;;;9.26;69.39
73297;BME280;61524;50.938;11.396;2023-04-25T05:39:15;98251.13;;;9.06;69.01
73297;BME280;61524;50.938;11.396;2023-04-25T05:41:41;98262.16;;;9.72;68.36
73297;BME280;61524;50.938;11.396;2023-04-25T05:44:06;98274.09;;;9.60;67.75
73297;BME280;61524;50.938;11.396;2023-04-25T05:46:32;98277.75;;;10.06;67.34
73297;BME280;61524;50.938;11.396;2023-04-25T05:48:57;98276.06;;;10.83;65.50
73297;BME280;61524;50.938;11.396;2023-04-25T05:51:23;98278.69;;;10.47;65.16
73297;BME280;61524;50.938;11.396;2023-04-25T05:53:48;98282.97;;;10.33;66.19
73297;BME280;61524;50.938;11.396;2023-04-25T05:56:14;98276.22;;;10.20;64.65
73297;BME280;61524;50.938;11.396;2023-04-25T05:58:39;98280.28;;;10.33;64.13
73297;BME280;61524;50.938;11.396;2023-04-25T06:01:05;98291.34;;;9.99;64.96
73297;BME280;61524;50.938;11.396;2023-04-25T06:03:30;98286.16;;;10.30;65.15
73297;BME280;61524;50.938;11.396;2023-04-25T06:05:56;98284.78;;;10.28;64.62
73297;BME280;61524;50.938;11.396;2023-04-25T06:08:21;98289.56;;;9.63;66.84
73297;BME280;61524;50.938;11.396;2023-04-25T06:10:47;98296.28;;;9.70;66.43
73297;BME280;61524;50.938;11.396;2023-04-25T06:13:12;98297.47;;;9.95;66.03
73297;BME280;61524;50.938;11.396;2023-04-25T06:15:37;98293.16;;;9.89;65.79
73297;BME280;61524;50.938;11.396;2023-04-25T06:18:03;98291.53;;;9.35;67.21
73297;BME280;61524;50.938;11.396;2023-04-25T06:20:28;98289.75;;;9.09;68.17
73297;BME280;61524;50.938;11.396;2023-04-25T06:22:54;98280.97;;;9.08;68.88
73297;BME280;61524;50.938;11.396;2023-04-25T06:25:20;98311.06;;;9.09;69.39
73297;BME280;61524;50.938;11.396;2023-04-25T06:27:46;98308.91;;;9.01;68.89
73297;BME280;61524;50.938;11.396;2023-04-25T06:30:11;98321.31;;;8.90;70.59
73297;BME280;61524;50.938;11.396;2023-04-25T06:32:38;98306.09;;;8.85;70.30
73297;BME280;61524;50.938;11.396;2023-04-25T06:35:04;98318.09;;;8.61;70.56
73297;BME280;61524;50.938;11.396;2023-04-25T06:37:29;98310.34;;;8.32;71.63
73297;BME280;61524;50.938;11.396;2023-04-25T06:39:55;98312.28;;;8.15;71.44
73297;BME280;61524;50.938;11.396;2023-04-25T06:42:21;98321.66;;;8.45;71.25
73297;BME280;61524;50.938;11.396;2023-04-25T06:44:46;98311.44;;;8.58;70.96
73297;BME280;61524;50.938;11.396;2023-04-25T06:47:11;98311.44;;;8.58;71.21
73297;BME280;61524;50.938;11.396;2023-04-25T06:49:37;98326.81;;;8.51;71.89
73297;BME280;61524;50.938;11.396;2023-04-25T06:52:02;98319.91;;;8.50;71.16
73297;BME280;61524;50.938;11.396;2023-04-25T06:54:28;98320.81;;;8.39;71.91
73297;BME280;61524;50.938;11.396;2023-04-25T06:56:55;98318.41;;;8.64;72.22
73297;BME280;61524;50.938;11.396;2023-04-25T06:59:21;98313.81;;;8.87;71.22
73297;BME280;61524;50.938;11.396;2023-04-25T07:01:46;98326.56;;;8.80;71.19
73297;BME280;61524;50.938;11.396;2023-04-25T07:04:12;98328.72;;;8.83;71.23
73297;BME280;61524;50.938;11.396;2023-04-25T07:06:38;98324.75;;;8.85;71.66
73297;BME280;61524;50.938;11.396;2023-04-25T07:09:11;98321.09;;;8.64;72.03
73297;BME280;61524;50.938;11.396;2023-04-25T07:11:36;98321.97;;;8.75;72.35
73297;BME280;61524;50.938;11.396;2023-04-25T07:14:02;98320.34;;;8.42;72.58
73297;BME280;61524;50.938;11.396;2023-04-25T07:16:28;98327.31;;;8.75;71.83
73297;BME280;61524;50.938;11.396;2023-04-25T07:18:54;98331.59;;;9.08;70.24
73297;BME280;61524;50.938;11.396;2023-04-25T07:21:19;98333.50;;;8.81;72.16
73297;BME280;61524;50.938;11.396;2023-04-25T07:23:45;98341.19;;;8.50;72.64
73297;BME280;61524;50.938;11.396;2023-04-25T07:26:10;98333.75;;;8.52;72.58
73297;BME280;61524;50.938;11.396;2023-04-25T07:28:36;98342.22;;;8.49;73.43
73297;BME280;61524;50.938;11.396;2023-04-25T07:31:02;98350.38;;;8.64;73.31
73297;BME280;61524;50.938;11.396;2023-04-25T07:33:27;98339.47;;;8.66;73.32
73297;BME280;61524;50.938;11.396;2023-04-25T07:35:53;98347.28;;;8.73;72.80
73297;BME280;61524;50.938;11.396;2023-04-25T07:38:19;98347.06;;;8.52;72.82
73297;BME280;61524;50.938;11.396;2023-04-25T07:40:44;98345.00;;;8.59;72.95
73297;BME280;61524;50.938;11.396;2023-04-25T07:43:10;98347.88;;;8.80;73.37
73297;BME280;61524;50.938;11.396;2023-04-25T07:45:37;98360.31;;;9.01;71.93
73297;BME280;61524;50.938;11.396;2023-04-25T07:48:02;98356.97;;;8.84;71.80
73297;BME280;61524;50.938;11.396;2023-04-25T07:50:28;98359.56;;;9.06;72.69
73297;BME280;61524;50.938;11.396;2023-04-25T07:52:53;98358.09;;;8.88;71.37
73297;BME280;61524;50.938;11.396;2023-04-25T07:55:19;98360.38;;;9.06;71.25
73297;BME280;61524;50.938;11.396;2023-04-25T07:57:45;98362.50;;;9.04;71.88
73297;BME280;61524;50.938;11.396;2023-04-25T08:00:11;98370.56;;;8.87;72.04
73297;BME280;61524;50.938;11.396;2023-04-25T08:02:37;98374.50;;;9.07;71.99
73297;BME280;61524;50.938;11.396;2023-04-25T08:05:03;98378.50;;;8.82;70.89
73297;BME280;61524;50.938;11.396;2023-04-25T08:07:28;98361.97;;;8.80;72.01
73297;BME280;61524;50.938;11.396;2023-04-25T08:09:54;98371.25;;;8.73;71.23
73297;BME280;61524;50.938;11.396;2023-04-25T08:12:19;98379.06;;;9.11;71.45
73297;BME280;61524;50.938;11.396;2023-04-25T08:14:45;98370.19;;;9.01;70.99
73297;BME280;61524;50.938;11.396;2023-04-25T08:17:11;98380.63;;;9.07;72.10
73297;BME280;61524;50.938;11.396;2023-04-25T08:19:36;98381.22;;;9.14;72.36
73297;BME280;61524;50.938;11.396;2023-04-25T08:22:02;98379.28;;;9.05;71.57
73297;BME280;61524;50.938;11.396;2023-04-25T08:24:28;98388.41;;;8.87;72.01
73297;BME280;61524;50.938;11.396;2023-04-25T08:26:53;98370.78;;;8.81;70.71
73297;BME280;61524;50.938;11.396;2023-04-25T08:29:19;98389.84;;;8.94;71.40
73297;BME280;61524;50.938;11.396;2023-04-25T08:31:45;98356.59;;;8.75;71.01
73297;BME280;61524;50.938;11.396;2023-04-25T08:34:10;98393.94;;;8.80;71.78
73297;BME280;61524;50.938;11.396;2023-04-25T08:36:36;98381.78;;;8.62;72.42
73297;BME280;61524;50.938;11.396;2023-04-25T08:39:02;98405.91;;;8.78;72.51
73297;BME280;61524;50.938;11.396;2023-04-25T08:41:27;98409.19;;;8.85;72.97
73297;BME280;61524;50.938;11.396;2023-04-25T08:43:56;98403.53;;;8.81;71.39
73297;BME280;61524;50.938;11.396;2023-04-25T08:46:24;98413.78;;;8.67;72.19
73297;BME280;61524;50.938;11.396;2023-04-25T08:48:51;98415.41;;;8.68;73.74
73297;BME280;61524;50.938;11.396;2023-04-25T08:51:22;98421.53;;;8.69;74.85
73297;BME280;61524;50.938;11.396;2023-04-25T08:53:52;98428.09;;;8.61;74.75
73297;BME280;61524;50.938;11.396;2023-04-25T08:56:18;98445.38;;;8.59;75.14
73297;BME280;61524;50.938;11.396;2023-04-25T08:58:48;98433.06;;;8.53;74.52
73297;BME280;61524;50.938;11.396;2023-04-25T09:01:14;98440.44;;;8.46;75.00
73297;BME280;61524;50.938;11.396;2023-04-25T09:03:39;98440.84;;;8.37;75.17
73297;BME280;61524;50.938;11.396;2023-04-25T09:06:05;98441.41;;;8.39;75.72
73297;BME280;61524;50.938;11.396;2023-04-25T09:08:31;98446.38;;;8.53;75.37
73297;BME280;61524;50.938;11.396;2023-04-25T09:10:56;98451.56;;;8.64;75.28
73297;BME280;61524;50.938;11.396;2023-04-25T09:13:27;98457.16;;;8.63;75.83
73297;BME280;61524;50.938;11.396;2023-04-25T09:15:54;98458.56;;;8.71;75.92
73297;BME280;61524;50.938;11.396;2023-04-25T09:18:27;98454.41;;;8.80;75.32
73297;BME280;61524;50.938;11.396;2023-04-25T09:20:54;98462.78;;;8.66;75.43
73297;BME280;61524;50.938;11.396;2023-04-25T09:23:21;98473.84;;;8.58;74.76
73297;BME280;61524;50.938;11.396;2023-04-25T09:25:48;98472.66;;;8.49;75.36
73297;BME280;61524;50.938;11.396;2023-04-25T09:28:14;98474.16;;;8.40;75.19
73297;BME280;61524;50.938;11.396;2023-04-25T09:30:39;98465.94;;;8.41;75.55
73297;BME280;61524;50.938;11.396;2023-04-25T09:33:06;98479.13;;;8.53;75.42
73297;BME280;61524;50.938;11.396;2023-04-25T09:35:40;98480.38;;;8.67;75.42
73297;BME280;61524;50.938;11.396;2023-04-25T09:38:14;98483.56;;;8.48;74.64
73297;BME280;61524;50.938;11.396;2023-04-25T09:40:41;98494.09;;;8.59;75.43
73297;BME280;61524;50.938;11.396;2023-04-25T09:43:10;98492.38;;;8.70;74.70
73297;BME280;61524;50.938;11.396;2023-04-25T09:45:43;98494.75;;;8.50;75.43
73297;BME280;61524;50.938;11.396;2023-04-25T09:48:21;98500.66;;;8.52;76.80
73297;BME280;61524;50.938;11.396;2023-04-25T09:53:29;98511.75;;;7.93;81.18
73297;BME280;61524;50.938;11.396;2023-04-25T09:55:55;98510.63;;;7.89;83.27
73297;BME280;61524;50.938;11.396;2023-04-25T09:58:24;98508.78;;;7.73;85.14
73297;BME280;61524;50.938;11.396;2023-04-25T10:00:50;98527.72;;;7.59;85.36
73297;BME280;61524;50.938;11.396;2023-04-25T10:03:17;98525.16;;;7.81;84.98
73297;BME280;61524;50.938;11.396;2023-04-25T10:05:43;98512.72;;;7.53;84.19
73297;BME280;61524;50.938;11.396;2023-04-25T10:08:11;98515.31;;;7.82;85.12
73297;BME280;61524;50.938;11.396;2023-04-25T10:10:38;98520.22;;;7.73;84.38
73297;BME280;61524;50.938;11.396;2023-04-25T10:13:05;98518.69;;;7.77;83.68
73297;BME280;61524;50.938;11.396;2023-04-25T10:15:34;98517.97;;;7.65;83.87
73297;BME280;61524;50.938;11.396;2023-04-25T10:18:00;98525.78;;;8.05;82.72
73297;BME280;61524;50.938;11.396;2023-04-25T10:20:26;98525.47;;;8.02;81.74
73297;BME280;61524;50.938;11.396;2023-04-25T10:22:54;98538.34;;;8.10;81.71
73297;BME280;61524;50.938;11.396;2023-04-25T10:25:23;98534.97;;;8.31;80.53
73297;BME280;61524;50.938;11.396;2023-04-25T10:27:52;98519.75;;;8.65;78.37
73297;BME280;61524;50.938;11.396;2023-04-25T10:30:18;98515.66;;;8.80;77.17
73297;BME280;61524;50.938;11.396;2023-04-25T10:32:44;98521.53;;;9.04;79.19
73297;BME280;61524;50.938;11.396;2023-04-25T10:35:24;98515.13;;;9.27;77.48
73297;BME280;61524;50.938;11.396;2023-04-25T10:38:03;98517.22;;;9.52;76.29
73297;BME280;61524;50.938;11.396;2023-04-25T10:40:33;98519.28;;;9.71;75.95
73297;BME280;61524;50.938;11.396;2023-04-25T10:45:56;98521.59;;;9.95;71.69
73297;BME280;61524;50.938;11.396;2023-04-25T10:48:27;98524.56;;;10.31;70.79
73297;BME280;61524;50.938;11.396;2023-04-25T10:53:34;98527.06;;;10.10;70.88
73297;BME280;61524;50.938;11.396;2023-04-25T10:56:00;98541.25;;;9.84;70.56
73297;BME280;61524;50.938;11.396;2023-04-25T10:58:26;98539.47;;;9.62;72.36
73297;BME280;61524;50.938;11.396;2023-04-25T11:00:51;98529.72;;;8.97;72.72
73297;BME280;61524;50.938;11.396;2023-04-25T11:03:17;98550.69;;;9.10;72.22
73297;BME280;61524;50.938;11.396;2023-04-25T11:05:47;98545.47;;;8.99;73.19
73297;BME280;61524;50.938;11.396;2023-04-25T11:08:25;98553.03;;;9.07;70.74
73297;BME280;61524;50.938;11.396;2023-04-25T11:10:58;98558.56;;;9.49;69.94
73297;BME280;61524;50.938;11.396;2023-04-25T11:13:29;98555.88;;;9.49;67.63
73297;BME280;61524;50.938;11.396;2023-04-25T11:15:55;98554.44;;;9.36;67.23
73297;BME280;61524;50.938;11.396;2023-04-25T11:18:20;98562.44;;;9.14;68.23
73297;BME280;61524;50.938;11.396;2023-04-25T11:20:47;98551.78;;;9.36;67.52
73297;BME280;61524;50.938;11.396;2023-04-25T11:23:13;98565.94;;;9.20;66.54
73297;BME280;61524;50.938;11.396;2023-04-25T11:25:40;98555.47;;;9.35;66.28
73297;BME280;61524;50.938;11.396;2023-04-25T11:28:06;98561.22;;;9.00;67.71
73297;BME280;61524;50.938;11.396;2023-04-25T11:30:31;98569.75;;;9.51;66.83
73297;BME280;61524;50.938;11.396;2023-04-25T11:32:56;98561.75;;;9.51;64.65
73297;BME280;61524;50.938;11.396;2023-04-25T11:35:22;98549.19;;;10.06;67.13
73297;BME280;61524;50.938;11.396;2023-04-25T11:37:48;98565.16;;;10.00;64.67
73297;BME280;61524;50.938;11.396;2023-04-25T11:40:14;98561.63;;;9.95;65.00
73297;BME280;61524;50.938;11.396;2023-04-25T11:42:44;98565.84;;;10.18;63.94
73297;BME280;61524;50.938;11.396;2023-04-25T11:45:11;98554.38;;;10.17;64.43
73297;BME280;61524;50.938;11.396;2023-04-25T11:47:37;98565.19;;;10.80;65.80
73297;BME280;61524;50.938;11.396;2023-04-25T11:50:04;98556.16;;;10.91;61.70
73297;BME280;61524;50.938;11.396;2023-04-25T11:52:44;98558.84;;;10.44;62.23
73297;BME280;61524;50.938;11.396;2023-04-25T11:55:13;98566.31;;;10.89;62.51
73297;BME280;61524;50.938;11.396;2023-04-25T11:57:40;98563.06;;;10.82;62.55
73297;BME280;61524;50.938;11.396;2023-04-25T12:00:26;98557.66;;;10.67;62.47
73297;BME280;61524;50.938;11.396;2023-04-25T12:02:53;98556.81;;;11.24;62.61
73297;BME280;61524;50.938;11.396;2023-04-25T12:05:19;98567.78;;;11.27;61.81
73297;BME280;61524;50.938;11.396;2023-04-25T12:07:46;98541.72;;;10.92;61.38
73297;BME280;61524;50.938;11.396;2023-04-25T12:10:13;98559.84;;;11.48;61.74
73297;BME280;61524;50.938;11.396;2023-04-25T12:12:44;98565.47;;;11.46;61.42
73297;BME280;61524;50.938;11.396;2023-04-25T12:15:15;98546.75;;;11.77;60.52
73297;BME280;61524;50.938;11.396;2023-04-25T12:17:50;98547.03;;;11.65;59.78
73297;BME280;61524;50.938;11.396;2023-04-25T12:20:18;98565.69;;;11.45;60.12
73297;BME280;61524;50.938;11.396;2023-04-25T12:22:47;98558.50;;;11.61;61.34
73297;BME280;61524;50.938;11.396;2023-04-25T12:25:42;98560.47;;;11.96;60.59
73297;BME280;61524;50.938;11.396;2023-04-25T12:28:19;98567.16;;;11.98;60.56
73297;BME280;61524;50.938;11.396;2023-04-25T12:31:14;98557.22;;;11.73;59.95
73297;BME280;61524;50.938;11.396;2023-04-25T12:33:41;98567.69;;;11.90;60.35
73297;BME280;61524;50.938;11.396;2023-04-25T12:36:09;98575.88;;;11.43;60.62
73297;BME280;61524;50.938;11.396;2023-04-25T12:38:38;98566.28;;;11.72;60.88
73297;BME280;61524;50.938;11.396;2023-04-25T12:41:04;98557.72;;;11.60;62.02
73297;BME280;61524;50.938;11.396;2023-04-25T12:43:29;98569.84;;;11.98;60.20
73297;BME280;61524;50.938;11.396;2023-04-25T12:45:56;98571.44;;;11.99;60.46
73297;BME280;61524;50.938;11.396;2023-04-25T12:48:22;98581.81;;;11.75;60.69
73297;BME280;61524;50.938;11.396;2023-04-25T12:50:48;98588.69;;;11.46;60.09
73297;BME280;61524;50.938;11.396;2023-04-25T12:53:19;98572.19;;;10.91;58.19
73297;BME280;61524;50.938;11.396;2023-04-25T12:55:46;98579.91;;;10.83;59.75
73297;BME280;61524;50.938;11.396;2023-04-25T12:58:15;98586.34;;;10.92;58.01
73297;BME280;61524;50.938;11.396;2023-04-25T13:00:41;98590.53;;;10.72;57.77
73297;BME280;61524;50.938;11.396;2023-04-25T13:03:08;98573.88;;;10.55;58.01